Terminal Aerodrome Forecast
Issued by NWS Mobile, AL

Home | Current Version | Previous Version | Text Only | Print | Product List | Glossary On
Versions: 1 2 3 4 5 6 7 8 9 10 11 12 13 14 15 16 17 18 19 20 21 22 23 24 25 26 27 28 29 30 31 32 33 34 35 36
000
FTUS44 KMOB 270522
TAFMOB
TAF
KMOB 270522Z 2706/2806 14009KT P6SM FEW020 SCT200
     FM271000 00000KT P6SM VCTS SCT030CB SCT200
     FM271700 33004KT P6SM VCTS SCT030CB SCT250 PROB30 2718/2721
      VRB25KT 5SM TSRA BKN030CB
     FM280100 25004KT P6SM FEW250=

USA.gov is the U.S. government's official web portal to all federal, state and local government web resources and services.